sensor_id;sensor_type;location;lat;lon;timestamp;temperature;humidity
64937;SHT30;51452;47.698;19.050;2022-09-17T00:00:09;16.62;69.97
64937;SHT30;51452;47.698;19.050;2022-09-17T00:02:35;16.57;70.46
64937;SHT30;51452;47.698;19.050;2022-09-17T00:05:00;16.56;70.57
64937;SHT30;51452;47.698;19.050;2022-09-17T00:07:25;16.66;70.36
64937;SHT30;51452;47.698;19.050;2022-09-17T00:09:52;16.66;70.48
64937;SHT30;51452;47.698;19.050;2022-09-17T00:12:17;16.69;69.72
64937;SHT30;51452;47.698;19.050;2022-09-17T00:14:43;16.57;70.40
64937;SHT30;51452;47.698;19.050;2022-09-17T00:17:08;16.65;69.16
64937;SHT30;51452;47.698;19.050;2022-09-17T00:19:33;16.67;70.11
64937;SHT30;51452;47.698;19.050;2022-09-17T00:21:59;16.73;69.72
64937;SHT30;51452;47.698;19.050;2022-09-17T00:24:24;16.70;69.28
64937;SHT30;51452;47.698;19.050;2022-09-17T00:26:49;16.75;69.70
64937;SHT30;51452;47.698;19.050;2022-09-17T00:29:16;16.73;68.74
64937;SHT30;51452;47.698;19.050;2022-09-17T00:31:41;16.79;68.72
64937;SHT30;51452;47.698;19.050;2022-09-17T00:34:07;16.79;68.88
64937;SHT30;51452;47.698;19.050;2022-09-17T00:36:34;16.75;67.60
64937;SHT30;51452;47.698;19.050;2022-09-17T00:39:00;16.75;67.78
64937;SHT30;51452;47.698;19.050;2022-09-17T00:41:29;16.77;67.98
64937;SHT30;51452;47.698;19.050;2022-09-17T00:44:00;16.77;67.01
64937;SHT30;51452;47.698;19.050;2022-09-17T00:46:36;16.76;67.44
64937;SHT30;51452;47.698;19.050;2022-09-17T00:49:10;16.76;67.50
64937;SHT30;51452;47.698;19.050;2022-09-17T00:51:40;16.62;67.39
64937;SHT30;51452;47.698;19.050;2022-09-17T00:54:09;16.70;67.73
64937;SHT30;51452;47.698;19.050;2022-09-17T00:56:38;16.80;66.79
64937;SHT30;51452;47.698;19.050;2022-09-17T00:59:04;16.80;67.31
64937;SHT30;51452;47.698;19.050;2022-09-17T01:01:31;16.81;67.48
64937;SHT30;51452;47.698;19.050;2022-09-17T01:03:56;16.84;68.15
64937;SHT30;51452;47.698;19.050;2022-09-17T01:09:26;16.73;68.24
64937;SHT30;51452;47.698;19.050;2022-09-17T01:14:45;16.66;67.22
64937;SHT30;51452;47.698;19.050;2022-09-17T01:22:36;16.52;67.43
64937;SHT30;51452;47.698;19.050;2022-09-17T01:25:21;16.49;66.79
64937;SHT30;51452;47.698;19.050;2022-09-17T01:38:42;16.56;66.67
64937;SHT30;51452;47.698;19.050;2022-09-17T01:41:32;16.46;66.13
64937;SHT30;51452;47.698;19.050;2022-09-17T01:44:05;16.46;66.23
64937;SHT30;51452;47.698;19.050;2022-09-17T01:46:39;16.55;66.73
64937;SHT30;51452;47.698;19.050;2022-09-17T01:49:09;16.60;66.64
64937;SHT30;51452;47.698;19.050;2022-09-17T01:51:38;16.56;67.08
64937;SHT30;51452;47.698;19.050;2022-09-17T01:56:57;16.51;66.63
64937;SHT30;51452;47.698;19.050;2022-09-17T01:59:37;16.44;66.74
64937;SHT30;51452;47.698;19.050;2022-09-17T02:02:17;16.35;66.28
64937;SHT30;51452;47.698;19.050;2022-09-17T02:05:04;16.35;66.13
64937;SHT30;51452;47.698;19.050;2022-09-17T02:07:32;16.29;65.63
64937;SHT30;51452;47.698;19.050;2022-09-17T02:10:05;16.26;65.50
64937;SHT30;51452;47.698;19.050;2022-09-17T02:12:35;16.24;65.95
64937;SHT30;51452;47.698;19.050;2022-09-17T02:15:06;16.24;66.23
64937;SHT30;51452;47.698;19.050;2022-09-17T02:17:38;16.22;66.88
64937;SHT30;51452;47.698;19.050;2022-09-17T02:20:05;16.30;66.23
64937;SHT30;51452;47.698;19.050;2022-09-17T02:25:18;16.09;64.75
64937;SHT30;51452;47.698;19.050;2022-09-17T02:30:28;16.02;64.97
64937;SHT30;51452;47.698;19.050;2022-09-17T02:32:54;16.02;65.08
64937;SHT30;51452;47.698;19.050;2022-09-17T02:35:20;15.97;65.69
64937;SHT30;51452;47.698;19.050;2022-09-17T02:37:45;15.95;66.11
64937;SHT30;51452;47.698;19.050;2022-09-17T02:40:13;16.00;65.53
64937;SHT30;51452;47.698;19.050;2022-09-17T02:49:14;15.75;65.91
64937;SHT30;51452;47.698;19.050;2022-09-17T02:52:03;15.77;66.29
64937;SHT30;51452;47.698;19.050;2022-09-17T02:54:41;15.83;66.46
64937;SHT30;51452;47.698;19.050;2022-09-17T02:57:32;15.90;66.61
64937;SHT30;51452;47.698;19.050;2022-09-17T03:02:47;15.94;66.45
64937;SHT30;51452;47.698;19.050;2022-09-17T03:05:16;15.78;66.32
64937;SHT30;51452;47.698;19.050;2022-09-17T03:07:42;15.90;66.55
64937;SHT30;51452;47.698;19.050;2022-09-17T03:10:08;15.85;66.57
64937;SHT30;51452;47.698;19.050;2022-09-17T03:12:35;15.91;66.28
64937;SHT30;51452;47.698;19.050;2022-09-17T03:15:00;15.93;65.76
64937;SHT30;51452;47.698;19.050;2022-09-17T03:17:26;15.91;65.97
64937;SHT30;51452;47.698;19.050;2022-09-17T03:19:51;15.78;65.98
64937;SHT30;51452;47.698;19.050;2022-09-17T03:22:16;15.67;66.81
64937;SHT30;51452;47.698;19.050;2022-09-17T03:24:42;15.57;66.92
64937;SHT30;51452;47.698;19.050;2022-09-17T03:27:07;15.61;66.11
64937;SHT30;51452;47.698;19.050;2022-09-17T03:29:33;15.57;66.29
64937;SHT30;51452;47.698;19.050;2022-09-17T03:31:58;15.60;66.17
64937;SHT30;51452;47.698;19.050;2022-09-17T03:34:25;15.49;65.96
64937;SHT30;51452;47.698;19.050;2022-09-17T03:36:50;15.50;65.91
64937;SHT30;51452;47.698;19.050;2022-09-17T03:39:15;15.47;66.45
64937;SHT30;51452;47.698;19.050;2022-09-17T03:41:41;15.49;66.63
64937;SHT30;51452;47.698;19.050;2022-09-17T03:44:06;15.51;66.94
64937;SHT30;51452;47.698;19.050;2022-09-17T03:46:32;15.53;66.20
64937;SHT30;51452;47.698;19.050;2022-09-17T03:48:57;15.44;65.78
64937;SHT30;51452;47.698;19.050;2022-09-17T03:51:23;15.39;65.76
64937;SHT30;51452;47.698;19.050;2022-09-17T03:53:48;15.39;66.46
64937;SHT30;51452;47.698;19.050;2022-09-17T03:56:14;15.35;66.89
64937;SHT30;51452;47.698;19.050;2022-09-17T03:58:39;15.29;66.93
64937;SHT30;51452;47.698;19.050;2022-09-17T04:01:05;15.25;66.52
64937;SHT30;51452;47.698;19.050;2022-09-17T04:03:31;15.10;66.59
64937;SHT30;51452;47.698;19.050;2022-09-17T04:05:56;15.15;66.58
64937;SHT30;51452;47.698;19.050;2022-09-17T04:08:22;14.96;67.19
64937;SHT30;51452;47.698;19.050;2022-09-17T04:10:47;14.84;67.36
64937;SHT30;51452;47.698;19.050;2022-09-17T04:13:14;14.69;68.05
64937;SHT30;51452;47.698;19.050;2022-09-17T04:15:40;14.64;68.36
64937;SHT30;51452;47.698;19.050;2022-09-17T04:18:06;14.64;68.32
64937;SHT30;51452;47.698;19.050;2022-09-17T04:20:31;14.72;68.42
64937;SHT30;51452;47.698;19.050;2022-09-17T04:22:57;14.64;68.33
64937;SHT30;51452;47.698;19.050;2022-09-17T04:25:22;14.64;68.34
64937;SHT30;51452;47.698;19.050;2022-09-17T04:27:47;14.74;68.05
64937;SHT30;51452;47.698;19.050;2022-09-17T04:30:13;14.64;68.36
64937;SHT30;51452;47.698;19.050;2022-09-17T04:32:39;14.68;68.36
64937;SHT30;51452;47.698;19.050;2022-09-17T04:35:04;14.65;68.47
64937;SHT30;51452;47.698;19.050;2022-09-17T04:37:30;14.67;68.25
64937;SHT30;51452;47.698;19.050;2022-09-17T04:39:55;14.61;68.59
64937;SHT30;51452;47.698;19.050;2022-09-17T04:42:21;14.63;68.68
64937;SHT30;51452;47.698;19.050;2022-09-17T04:44:46;14.64;68.60
64937;SHT30;51452;47.698;19.050;2022-09-17T04:47:12;14.68;68.39
64937;SHT30;51452;47.698;19.050;2022-09-17T04:49:37;14.72;68.42
64937;SHT30;51452;47.698;19.050;2022-09-17T04:52:02;14.78;68.18
64937;SHT30;51452;47.698;19.050;2022-09-17T04:54:28;14.81;68.19
64937;SHT30;51452;47.698;19.050;2022-09-17T04:56:53;14.71;68.19
64937;SHT30;51452;47.698;19.050;2022-09-17T04:59:19;14.79;68.07
64937;SHT30;51452;47.698;19.050;2022-09-17T05:01:44;14.76;67.63
64937;SHT30;51452;47.698;19.050;2022-09-17T05:04:09;14.64;68.21
64937;SHT30;51452;47.698;19.050;2022-09-17T05:06:35;14.75;67.99
64937;SHT30;51452;47.698;19.050;2022-09-17T05:09:00;14.78;68.26
64937;SHT30;51452;47.698;19.050;2022-09-17T05:11:27;14.79;67.94
64937;SHT30;51452;47.698;19.050;2022-09-17T05:13:52;14.75;68.17
64937;SHT30;51452;47.698;19.050;2022-09-17T05:16:18;14.76;68.23
64937;SHT30;51452;47.698;19.050;2022-09-17T05:18:43;14.85;68.11
64937;SHT30;51452;47.698;19.050;2022-09-17T05:21:09;14.85;68.19
64937;SHT30;51452;47.698;19.050;2022-09-17T05:23:34;14.89;68.21
64937;SHT30;51452;47.698;19.050;2022-09-17T05:26:00;14.91;68.29
64937;SHT30;51452;47.698;19.050;2022-09-17T05:28:26;14.91;68.24
64937;SHT30;51452;47.698;19.050;2022-09-17T05:30:51;14.92;68.36
64937;SHT30;51452;47.698;19.050;2022-09-17T05:33:17;14.86;69.05
64937;SHT30;51452;47.698;19.050;2022-09-17T05:35:43;14.75;69.37
64937;SHT30;51452;47.698;19.050;2022-09-17T05:38:09;14.85;69.07
64937;SHT30;51452;47.698;19.050;2022-09-17T05:40:35;14.91;68.39
64937;SHT30;51452;47.698;19.050;2022-09-17T05:43:04;14.91;68.58
64937;SHT30;51452;47.698;19.050;2022-09-17T05:45:32;14.96;68.44
64937;SHT30;51452;47.698;19.050;2022-09-17T05:47:59;15.05;68.62
64937;SHT30;51452;47.698;19.050;2022-09-17T05:50:25;15.05;69.35
64937;SHT30;51452;47.698;19.050;2022-09-17T05:52:52;15.13;68.46
64937;SHT30;51452;47.698;19.050;2022-09-17T05:55:18;15.10;68.90
64937;SHT30;51452;47.698;19.050;2022-09-17T05:57:44;15.05;69.36
64937;SHT30;51452;47.698;19.050;2022-09-17T06:00:10;15.06;68.51
64937;SHT30;51452;47.698;19.050;2022-09-17T06:02:36;15.10;68.35
64937;SHT30;51452;47.698;19.050;2022-09-17T06:05:03;15.02;67.80
64937;SHT30;51452;47.698;19.050;2022-09-17T06:07:28;14.98;68.04
64937;SHT30;51452;47.698;19.050;2022-09-17T06:09:53;14.96;68.57
64937;SHT30;51452;47.698;19.050;2022-09-17T06:12:19;14.86;67.23
64937;SHT30;51452;47.698;19.050;2022-09-17T06:14:44;14.86;67.00
64937;SHT30;51452;47.698;19.050;2022-09-17T06:17:10;14.93;67.40
64937;SHT30;51452;47.698;19.050;2022-09-17T06:19:35;14.96;67.18
64937;SHT30;51452;47.698;19.050;2022-09-17T06:22:00;15.02;67.04
64937;SHT30;51452;47.698;19.050;2022-09-17T06:24:26;15.00;66.86
64937;SHT30;51452;47.698;19.050;2022-09-17T06:26:52;14.96;66.43
64937;SHT30;51452;47.698;19.050;2022-09-17T06:29:18;14.98;67.06
64937;SHT30;51452;47.698;19.050;2022-09-17T06:31:44;15.00;66.42
64937;SHT30;51452;47.698;19.050;2022-09-17T06:34:11;14.96;66.98
64937;SHT30;51452;47.698;19.050;2022-09-17T06:36:37;14.91;68.11
64937;SHT30;51452;47.698;19.050;2022-09-17T06:39:02;14.93;67.45
64937;SHT30;51452;47.698;19.050;2022-09-17T06:41:28;14.89;66.95
64937;SHT30;51452;47.698;19.050;2022-09-17T06:43:53;15.00;67.45
64937;SHT30;51452;47.698;19.050;2022-09-17T06:46:18;14.92;67.14
64937;SHT30;51452;47.698;19.050;2022-09-17T06:48:44;14.84;66.76
64937;SHT30;51452;47.698;19.050;2022-09-17T06:51:10;14.79;68.09
64937;SHT30;51452;47.698;19.050;2022-09-17T06:53:36;14.88;68.43
64937;SHT30;51452;47.698;19.050;2022-09-17T06:56:03;14.92;67.72
64937;SHT30;51452;47.698;19.050;2022-09-17T06:58:29;14.96;66.69
64937;SHT30;51452;47.698;19.050;2022-09-17T07:01:01;14.95;67.44
64937;SHT30;51452;47.698;19.050;2022-09-17T07:03:27;15.07;67.33
64937;SHT30;51452;47.698;19.050;2022-09-17T07:05:53;15.20;66.82
64937;SHT30;51452;47.698;19.050;2022-09-17T07:08:18;15.23;66.23
64937;SHT30;51452;47.698;19.050;2022-09-17T07:10:44;15.29;66.09
64937;SHT30;51452;47.698;19.050;2022-09-17T07:13:09;15.35;65.01
64937;SHT30;51452;47.698;19.050;2022-09-17T07:15:34;15.39;65.12
64937;SHT30;51452;47.698;19.050;2022-09-17T07:18:07;15.42;64.89
64937;SHT30;51452;47.698;19.050;2022-09-17T07:20:32;15.37;64.05
64937;SHT30;51452;47.698;19.050;2022-09-17T07:22:58;15.42;64.59
64937;SHT30;51452;47.698;19.050;2022-09-17T07:25:24;15.51;64.43
64937;SHT30;51452;47.698;19.050;2022-09-17T07:27:50;15.43;63.79
64937;SHT30;51452;47.698;19.050;2022-09-17T07:30:16;15.40;64.38
64937;SHT30;51452;47.698;19.050;2022-09-17T07:32:41;15.44;65.22
64937;SHT30;51452;47.698;19.050;2022-09-17T07:35:07;15.46;64.55
64937;SHT30;51452;47.698;19.050;2022-09-17T07:37:32;15.54;63.57
64937;SHT30;51452;47.698;19.050;2022-09-17T07:39:58;15.57;65.02
64937;SHT30;51452;47.698;19.050;2022-09-17T07:42:23;15.57;63.51
64937;SHT30;51452;47.698;19.050;2022-09-17T07:44:49;15.50;63.25
64937;SHT30;51452;47.698;19.050;2022-09-17T07:47:14;15.56;64.00
64937;SHT30;51452;47.698;19.050;2022-09-17T07:49:39;15.60;63.12
64937;SHT30;51452;47.698;19.050;2022-09-17T07:52:05;15.53;62.54
64937;SHT30;51452;47.698;19.050;2022-09-17T07:54:34;15.51;64.06
64937;SHT30;51452;47.698;19.050;2022-09-17T07:57:01;15.44;64.24
64937;SHT30;51452;47.698;19.050;2022-09-17T07:59:27;15.56;63.29
64937;SHT30;51452;47.698;19.050;2022-09-17T08:01:52;15.51;62.90
64937;SHT30;51452;47.698;19.050;2022-09-17T08:04:17;15.56;62.32
64937;SHT30;51452;47.698;19.050;2022-09-17T08:06:43;15.53;62.58
64937;SHT30;51452;47.698;19.050;2022-09-17T08:09:12;15.54;62.51
64937;SHT30;51452;47.698;19.050;2022-09-17T08:11:39;15.64;63.36
64937;SHT30;51452;47.698;19.050;2022-09-17T08:14:05;15.61;63.53
64937;SHT30;51452;47.698;19.050;2022-09-17T08:16:30;15.61;63.80
64937;SHT30;51452;47.698;19.050;2022-09-17T08:18:56;15.70;63.33
64937;SHT30;51452;47.698;19.050;2022-09-17T08:21:22;15.63;63.16
64937;SHT30;51452;47.698;19.050;2022-09-17T08:23:48;15.70;62.19
64937;SHT30;51452;47.698;19.050;2022-09-17T08:26:16;15.75;62.78
64937;SHT30;51452;47.698;19.050;2022-09-17T08:28:46;15.77;63.01
64937;SHT30;51452;47.698;19.050;2022-09-17T08:31:13;15.77;62.34
64937;SHT30;51452;47.698;19.050;2022-09-17T08:33:39;15.71;62.88
64937;SHT30;51452;47.698;19.050;2022-09-17T08:36:06;15.63;62.75
64937;SHT30;51452;47.698;19.050;2022-09-17T08:38:34;15.54;62.88
64937;SHT30;51452;47.698;19.050;2022-09-17T08:49:29;15.68;62.61
64937;SHT30;51452;47.698;19.050;2022-09-17T08:54:49;15.84;63.99
64937;SHT30;51452;47.698;19.050;2022-09-17T09:00:19;15.77;62.73
64937;SHT30;51452;47.698;19.050;2022-09-17T09:05:30;15.78;62.61
64937;SHT30;51452;47.698;19.050;2022-09-17T09:08:05;15.73;63.25
64937;SHT30;51452;47.698;19.050;2022-09-17T09:10:45;15.77;63.19
64937;SHT30;51452;47.698;19.050;2022-09-17T09:13:14;15.66;63.47
64937;SHT30;51452;47.698;19.050;2022-09-17T09:15:45;15.64;63.61
64937;SHT30;51452;47.698;19.050;2022-09-17T09:18:19;15.60;63.90
64937;SHT30;51452;47.698;19.050;2022-09-17T09:20:57;15.60;64.49
64937;SHT30;51452;47.698;19.050;2022-09-17T09:23:54;15.67;64.42
64937;SHT30;51452;47.698;19.050;2022-09-17T09:26:33;15.73;63.60
64937;SHT30;51452;47.698;19.050;2022-09-17T09:35:15;15.73;63.36
64937;SHT30;51452;47.698;19.050;2022-09-17T09:43:20;15.64;63.40
64937;SHT30;51452;47.698;19.050;2022-09-17T09:46:02;15.64;62.60
64937;SHT30;51452;47.698;19.050;2022-09-17T09:54:23;15.60;62.42
64937;SHT30;51452;47.698;19.050;2022-09-17T09:56:57;15.64;62.39
64937;SHT30;51452;47.698;19.050;2022-09-17T09:59:24;15.71;62.64
64937;SHT30;51452;47.698;19.050;2022-09-17T10:01:50;15.81;63.90
64937;SHT30;51452;47.698;19.050;2022-09-17T10:04:23;15.88;62.34
64937;SHT30;51452;47.698;19.050;2022-09-17T10:06:52;15.94;62.07
64937;SHT30;51452;47.698;19.050;2022-09-17T10:09:19;15.88;62.37
64937;SHT30;51452;47.698;19.050;2022-09-17T10:14:29;15.97;61.15
64937;SHT30;51452;47.698;19.050;2022-09-17T10:17:19;16.04;61.94
64937;SHT30;51452;47.698;19.050;2022-09-17T10:22:32;16.18;59.57
64937;SHT30;51452;47.698;19.050;2022-09-17T10:25:00;16.21;59.36
64937;SHT30;51452;47.698;19.050;2022-09-17T10:27:27;16.36;59.60
64937;SHT30;51452;47.698;19.050;2022-09-17T10:32:33;16.60;58.60
64937;SHT30;51452;47.698;19.050;2022-09-17T10:37:48;16.46;57.24
64937;SHT30;51452;47.698;19.050;2022-09-17T10:40:25;16.49;60.01
64937;SHT30;51452;47.698;19.050;2022-09-17T10:45:37;16.36;57.03
64937;SHT30;51452;47.698;19.050;2022-09-17T10:48:03;16.18;58.56
64937;SHT30;51452;47.698;19.050;2022-09-17T10:50:31;16.15;58.85
64937;SHT30;51452;47.698;19.050;2022-09-17T10:53:04;16.11;58.38
64937;SHT30;51452;47.698;19.050;2022-09-17T10:55:31;16.04;57.30
64937;SHT30;51452;47.698;19.050;2022-09-17T11:19:56;15.85;58.23
64937;SHT30;51452;47.698;19.050;2022-09-17T11:28:13;15.84;58.50
64937;SHT30;51452;47.698;19.050;2022-09-17T11:30:51;15.85;58.17
64937;SHT30;51452;47.698;19.050;2022-09-17T11:33:32;15.93;57.86
64937;SHT30;51452;47.698;19.050;2022-09-17T11:36:07;15.87;56.83
64937;SHT30;51452;47.698;19.050;2022-09-17T11:38:40;15.98;58.30
64937;SHT30;51452;47.698;19.050;2022-09-17T11:41:28;15.93;56.28
64937;SHT30;51452;47.698;19.050;2022-09-17T11:44:12;15.83;55.94
64937;SHT30;51452;47.698;19.050;2022-09-17T11:46:42;15.88;57.26
64937;SHT30;51452;47.698;19.050;2022-09-17T11:49:18;15.94;56.52
64937;SHT30;51452;47.698;19.050;2022-09-17T11:51:58;16.00;56.31
64937;SHT30;51452;47.698;19.050;2022-09-17T11:54:32;15.91;55.90
64937;SHT30;51452;47.698;19.050;2022-09-17T11:57:12;15.88;56.44
64937;SHT30;51452;47.698;19.050;2022-09-17T12:00:00;15.93;55.89
64937;SHT30;51452;47.698;19.050;2022-09-17T12:05:25;16.21;54.45
64937;SHT30;51452;47.698;19.050;2022-09-17T12:08:33;16.25;56.21
64937;SHT30;51452;47.698;19.050;2022-09-17T12:11:10;16.25;54.70
64937;SHT30;51452;47.698;19.050;2022-09-17T12:13:44;16.25;54.16
64937;SHT30;51452;47.698;19.050;2022-09-17T12:24:35;16.22;53.79
64937;SHT30;51452;47.698;19.050;2022-09-17T12:41:00;16.24;54.92
64937;SHT30;51452;47.698;19.050;2022-09-17T13:00:14;16.09;55.86
64937;SHT30;51452;47.698;19.050;2022-09-17T13:17:10;15.98;57.12
64937;SHT30;51452;47.698;19.050;2022-09-17T13:22:19;15.83;57.10
64937;SHT30;51452;47.698;19.050;2022-09-17T13:24:47;15.93;56.72
64937;SHT30;51452;47.698;19.050;2022-09-17T13:27:25;15.67;57.27
64937;SHT30;51452;47.698;19.050;2022-09-17T13:37:54;15.78;57.32
64937;SHT30;51452;47.698;19.050;2022-09-17T13:40:31;15.68;58.00
64937;SHT30;51452;47.698;19.050;2022-09-17T13:45:24;15.74;57.95
64937;SHT30;51452;47.698;19.050;2022-09-17T13:47:51;15.67;57.20
64937;SHT30;51452;47.698;19.050;2022-09-17T13:53:18;15.60;57.66
64937;SHT30;51452;47.698;19.050;2022-09-17T13:56:01;15.50;57.66
64937;SHT30;51452;47.698;19.050;2022-09-17T13:58:32;15.40;57.32
64937;SHT30;51452;47.698;19.050;2022-09-17T14:01:11;15.32;57.80
64937;SHT30;51452;47.698;19.050;2022-09-17T14:21:42;15.23;57.83
64937;SHT30;51452;47.698;19.050;2022-09-17T14:32:16;15.27;57.71
64937;SHT30;51452;47.698;19.050;2022-09-17T14:34:45;15.33;57.28
64937;SHT30;51452;47.698;19.050;2022-09-17T14:37:17;15.30;57.81
64937;SHT30;51452;47.698;19.050;2022-09-17T14:39:45;15.30;58.21
64937;SHT30;51452;47.698;19.050;2022-09-17T14:42:15;15.35;56.85
64937;SHT30;51452;47.698;19.050;2022-09-17T14:45:00;15.20;57.82
64937;SHT30;51452;47.698;19.050;2022-09-17T14:47:26;15.15;58.30
64937;SHT30;51452;47.698;19.050;2022-09-17T14:49:52;15.09;57.60
64937;SHT30;51452;47.698;19.050;2022-09-17T14:54:47;14.99;57.89
64937;SHT30;51452;47.698;19.050;2022-09-17T14:57:27;14.93;59.50
64937;SHT30;51452;47.698;19.050;2022-09-17T14:59:54;14.85;57.64
64937;SHT30;51452;47.698;19.050;2022-09-17T15:02:41;14.81;58.51
64937;SHT30;51452;47.698;19.050;2022-09-17T15:05:35;14.79;59.01
64937;SHT30;51452;47.698;19.050;2022-09-17T15:10:43;14.79;58.23
64937;SHT30;51452;47.698;19.050;2022-09-17T15:13:15;14.65;58.53
64937;SHT30;51452;47.698;19.050;2022-09-17T15:16:35;14.60;58.98
64937;SHT30;51452;47.698;19.050;2022-09-17T15:18:53;14.61;58.72
64937;SHT30;51452;47.698;19.050;2022-09-17T15:21:38;14.57;58.30
64937;SHT30;51452;47.698;19.050;2022-09-17T15:27:00;14.48;58.48
64937;SHT30;51452;47.698;19.050;2022-09-17T15:29:29;14.55;58.70
64937;SHT30;51452;47.698;19.050;2022-09-17T15:32:17;14.57;58.39
64937;SHT30;51452;47.698;19.050;2022-09-17T15:34:42;14.45;59.13
64937;SHT30;51452;47.698;19.050;2022-09-17T15:37:19;14.52;59.04
64937;SHT30;51452;47.698;19.050;2022-09-17T15:39:50;14.57;58.66
64937;SHT30;51452;47.698;19.050;2022-09-17T15:42:25;14.52;59.11
64937;SHT30;51452;47.698;19.050;2022-09-17T15:44:51;14.41;59.86
64937;SHT30;51452;47.698;19.050;2022-09-17T15:47:49;14.34;59.44
64937;SHT30;51452;47.698;19.050;2022-09-17T15:52:46;14.45;59.84
64937;SHT30;51452;47.698;19.050;2022-09-17T15:55:44;14.28;59.82
64937;SHT30;51452;47.698;19.050;2022-09-17T15:58:27;14.25;60.07
64937;SHT30;51452;47.698;19.050;2022-09-17T16:08:48;14.38;60.52
64937;SHT30;51452;47.698;19.050;2022-09-17T16:11:19;14.33;60.79
64937;SHT30;51452;47.698;19.050;2022-09-17T16:13:45;14.27;60.67
64937;SHT30;51452;47.698;19.050;2022-09-17T16:16:16;14.28;60.94
64937;SHT30;51452;47.698;19.050;2022-09-17T16:18:42;14.13;60.85
64937;SHT30;51452;47.698;19.050;2022-09-17T16:21:11;14.27;61.05
64937;SHT30;51452;47.698;19.050;2022-09-17T16:23:36;14.31;60.92
64937;SHT30;51452;47.698;19.050;2022-09-17T16:26:02;14.30;61.26
64937;SHT30;51452;47.698;19.050;2022-09-17T16:28:28;14.24;61.23
64937;SHT30;51452;47.698;19.050;2022-09-17T16:30:54;14.27;61.30
64937;SHT30;51452;47.698;19.050;2022-09-17T16:33:20;14.28;61.94
64937;SHT30;51452;47.698;19.050;2022-09-17T16:35:46;14.21;61.65
64937;SHT30;51452;47.698;19.050;2022-09-17T16:38:11;14.09;61.66
64937;SHT30;51452;47.698;19.050;2022-09-17T16:40:44;14.21;61.75
64937;SHT30;51452;47.698;19.050;2022-09-17T16:43:11;14.03;61.87
64937;SHT30;51452;47.698;19.050;2022-09-17T16:45:36;14.17;62.13
64937;SHT30;51452;47.698;19.050;2022-09-17T16:48:04;14.12;61.89
64937;SHT30;51452;47.698;19.050;2022-09-17T16:50:29;14.12;61.78
64937;SHT30;51452;47.698;19.050;2022-09-17T16:52:55;14.13;62.25
64937;SHT30;51452;47.698;19.050;2022-09-17T16:55:20;14.16;62.97
64937;SHT30;51452;47.698;19.050;2022-09-17T16:57:46;14.10;62.50
64937;SHT30;51452;47.698;19.050;2022-09-17T17:00:14;14.14;63.38
64937;SHT30;51452;47.698;19.050;2022-09-17T17:02:49;14.18;63.16
64937;SHT30;51452;47.698;19.050;2022-09-17T17:05:15;14.14;63.56
64937;SHT30;51452;47.698;19.050;2022-09-17T17:07:40;14.02;63.92
64937;SHT30;51452;47.698;19.050;2022-09-17T17:10:09;13.97;64.22
64937;SHT30;51452;47.698;19.050;2022-09-17T17:12:36;13.97;64.90
64937;SHT30;51452;47.698;19.050;2022-09-17T17:15:04;13.93;65.42
64937;SHT30;51452;47.698;19.050;2022-09-17T17:17:33;14.06;66.25
64937;SHT30;51452;47.698;19.050;2022-09-17T17:20:00;13.93;65.29
64937;SHT30;51452;47.698;19.050;2022-09-17T17:22:27;14.00;65.51
64937;SHT30;51452;47.698;19.050;2022-09-17T17:24:52;13.94;65.42
64937;SHT30;51452;47.698;19.050;2022-09-17T17:27:18;13.97;65.64
64937;SHT30;51452;47.698;19.050;2022-09-17T17:29:43;13.99;65.39
64937;SHT30;51452;47.698;19.050;2022-09-17T17:32:08;13.86;66.02
64937;SHT30;51452;47.698;19.050;2022-09-17T17:34:34;13.93;65.45
64937;SHT30;51452;47.698;19.050;2022-09-17T17:36:59;13.79;65.06
64937;SHT30;51452;47.698;19.050;2022-09-17T17:39:25;13.82;66.20
64937;SHT30;51452;47.698;19.050;2022-09-17T17:41:50;13.76;65.35
64937;SHT30;51452;47.698;19.050;2022-09-17T17:44:18;13.79;65.66
64937;SHT30;51452;47.698;19.050;2022-09-17T17:46:43;13.82;64.97
64937;SHT30;51452;47.698;19.050;2022-09-17T17:49:09;13.85;64.93
64937;SHT30;51452;47.698;19.050;2022-09-17T17:51:34;13.85;64.66
64937;SHT30;51452;47.698;19.050;2022-09-17T17:54:00;13.80;64.78
64937;SHT30;51452;47.698;19.050;2022-09-17T17:56:25;13.85;64.47
64937;SHT30;51452;47.698;19.050;2022-09-17T17:58:55;13.80;65.10
64937;SHT30;51452;47.698;19.050;2022-09-17T18:01:26;13.85;64.24
64937;SHT30;51452;47.698;19.050;2022-09-17T18:03:56;13.85;64.17
64937;SHT30;51452;47.698;19.050;2022-09-17T18:06:22;13.77;64.48
64937;SHT30;51452;47.698;19.050;2022-09-17T18:08:47;13.73;64.48
64937;SHT30;51452;47.698;19.050;2022-09-17T18:11:13;13.69;64.94
64937;SHT30;51452;47.698;19.050;2022-09-17T18:13:38;13.77;64.55
64937;SHT30;51452;47.698;19.050;2022-09-17T18:16:05;13.72;64.41
64937;SHT30;51452;47.698;19.050;2022-09-17T18:18:36;13.67;64.83
64937;SHT30;51452;47.698;19.050;2022-09-17T18:21:04;13.72;64.74
64937;SHT30;51452;47.698;19.050;2022-09-17T18:23:32;13.67;65.31
64937;SHT30;51452;47.698;19.050;2022-09-17T18:25:59;13.73;64.67
64937;SHT30;51452;47.698;19.050;2022-09-17T18:28:26;13.80;64.48
64937;SHT30;51452;47.698;19.050;2022-09-17T18:30:52;13.76;64.53
64937;SHT30;51452;47.698;19.050;2022-09-17T18:33:23;13.76;64.59
64937;SHT30;51452;47.698;19.050;2022-09-17T18:35:50;13.72;64.43
64937;SHT30;51452;47.698;19.050;2022-09-17T18:38:17;13.77;64.81
64937;SHT30;51452;47.698;19.050;2022-09-17T18:40:43;13.75;64.66
64937;SHT30;51452;47.698;19.050;2022-09-17T18:43:08;13.69;64.77
64937;SHT30;51452;47.698;19.050;2022-09-17T18:45:34;13.63;64.77
64937;SHT30;51452;47.698;19.050;2022-09-17T18:48:03;13.52;65.02
64937;SHT30;51452;47.698;19.050;2022-09-17T18:50:29;13.62;64.93
64937;SHT30;51452;47.698;19.050;2022-09-17T18:52:54;13.61;65.12
64937;SHT30;51452;47.698;19.050;2022-09-17T18:55:20;13.63;65.30
64937;SHT30;51452;47.698;19.050;2022-09-17T18:57:48;13.66;64.69
64937;SHT30;51452;47.698;19.050;2022-09-17T19:00:15;13.59;64.90
64937;SHT30;51452;47.698;19.050;2022-09-17T19:02:42;13.58;64.65
64937;SHT30;51452;47.698;19.050;2022-09-17T19:05:08;13.70;64.93
64937;SHT30;51452;47.698;19.050;2022-09-17T19:07:33;13.67;64.58
64937;SHT30;51452;47.698;19.050;2022-09-17T19:09:59;13.66;64.68
64937;SHT30;51452;47.698;19.050;2022-09-17T19:12:25;13.56;64.85
64937;SHT30;51452;47.698;19.050;2022-09-17T19:14:50;13.66;64.93
64937;SHT30;51452;47.698;19.050;2022-09-17T19:17:15;13.62;64.66